Terminal Aerodrome Forecast
Issued by NWS

Home | Current Version | Previous Version | Text Only | Print | Product List | Glossary On
Versions: 1 2 3 4 5 6 7 8 9 10 11 12 13 14 15 16 17 18 19
000
FTUS44 KBMX 270259 AAA
TAFANB
TAF AMD
KANB 270259Z 2703/2724 02010G15KT P6SM SCT025 BKN250
     FM270600 05007KT P6SM SCT250
     FM271500 03010KT P6SM SCT250=

USA.gov is the U.S. government's official web portal to all federal, state and local government web resources and services.